sensor_id;sensor_type;location;lat;lon;timestamp;P1;durP1;ratioP1;P2;durP2;ratioP2
29500;SDS011;16450;50.288;10.966;2023-12-07T00:00:37;39.27;;;21.27;;
29500;SDS011;16450;50.288;10.966;2023-12-07T00:03:39;38.90;;;20.83;;
29500;SDS011;16450;50.288;10.966;2023-12-07T00:06:40;38.53;;;20.10;;
29500;SDS011;16450;50.288;10.966;2023-12-07T00:09:42;40.53;;;22.27;;
29500;SDS011;16450;50.288;10.966;2023-12-07T00:12:44;42.07;;;22.33;;
29500;SDS011;16450;50.288;10.966;2023-12-07T00:15:46;42.07;;;22.37;;
29500;SDS011;16450;50.288;10.966;2023-12-07T00:18:49;46.30;;;22.70;;
29500;SDS011;16450;50.288;10.966;2023-12-07T00:21:50;39.03;;;21.97;;
29500;SDS011;16450;50.288;10.966;2023-12-07T00:24:52;37.30;;;20.50;;
29500;SDS011;16450;50.288;10.966;2023-12-07T00:27:54;39.97;;;20.40;;
29500;SDS011;16450;50.288;10.966;2023-12-07T00:30:56;39.83;;;21.70;;
29500;SDS011;16450;50.288;10.966;2023-12-07T00:33:58;40.40;;;22.70;;
29500;SDS011;16450;50.288;10.966;2023-12-07T00:37:00;37.00;;;20.73;;
29500;SDS011;16450;50.288;10.966;2023-12-07T00:40:02;37.07;;;20.43;;
29500;SDS011;16450;50.288;10.966;2023-12-07T00:43:05;37.40;;;20.23;;
29500;SDS011;16450;50.288;10.966;2023-12-07T00:46:08;37.83;;;20.93;;
29500;SDS011;16450;50.288;10.966;2023-12-07T00:49:10;40.53;;;21.53;;
29500;SDS011;16450;50.288;10.966;2023-12-07T00:52:13;43.00;;;21.60;;
29500;SDS011;16450;50.288;10.966;2023-12-07T00:55:15;42.70;;;22.93;;
29500;SDS011;16450;50.288;10.966;2023-12-07T00:58:17;45.17;;;23.03;;
29500;SDS011;16450;50.288;10.966;2023-12-07T01:01:19;42.10;;;21.67;;
29500;SDS011;16450;50.288;10.966;2023-12-07T01:04:20;42.57;;;22.27;;
29500;SDS011;16450;50.288;10.966;2023-12-07T01:07:22;38.53;;;21.23;;
29500;SDS011;16450;50.288;10.966;2023-12-07T01:10:24;42.23;;;21.47;;
29500;SDS011;16450;50.288;10.966;2023-12-07T01:13:26;42.77;;;23.17;;
29500;SDS011;16450;50.288;10.966;2023-12-07T01:16:28;45.23;;;23.27;;
29500;SDS011;16450;50.288;10.966;2023-12-07T01:19:30;42.90;;;23.73;;
29500;SDS011;16450;50.288;10.966;2023-12-07T01:22:32;39.23;;;21.63;;
29500;SDS011;16450;50.288;10.966;2023-12-07T01:25:34;44.40;;;23.40;;
29500;SDS011;16450;50.288;10.966;2023-12-07T01:28:36;41.70;;;22.80;;
29500;SDS011;16450;50.288;10.966;2023-12-07T01:31:38;43.10;;;22.00;;
29500;SDS011;16450;50.288;10.966;2023-12-07T01:34:40;40.63;;;21.00;;
29500;SDS011;16450;50.288;10.966;2023-12-07T01:37:42;40.97;;;21.73;;
29500;SDS011;16450;50.288;10.966;2023-12-07T01:40:44;40.57;;;21.80;;
29500;SDS011;16450;50.288;10.966;2023-12-07T01:43:47;43.60;;;22.20;;
29500;SDS011;16450;50.288;10.966;2023-12-07T01:46:49;44.97;;;23.67;;
29500;SDS011;16450;50.288;10.966;2023-12-07T01:49:51;43.57;;;22.63;;
29500;SDS011;16450;50.288;10.966;2023-12-07T01:52:54;44.90;;;22.73;;
29500;SDS011;16450;50.288;10.966;2023-12-07T01:56:02;40.67;;;22.03;;
29500;SDS011;16450;50.288;10.966;2023-12-07T01:59:05;39.53;;;21.60;;
29500;SDS011;16450;50.288;10.966;2023-12-07T02:02:07;37.50;;;20.70;;
29500;SDS011;16450;50.288;10.966;2023-12-07T02:05:09;41.17;;;22.27;;
29500;SDS011;16450;50.288;10.966;2023-12-07T02:08:11;48.30;;;23.60;;
29500;SDS011;16450;50.288;10.966;2023-12-07T02:11:13;41.03;;;22.23;;
29500;SDS011;16450;50.288;10.966;2023-12-07T02:14:15;45.30;;;23.73;;
29500;SDS011;16450;50.288;10.966;2023-12-07T02:24:32;39.80;;;21.73;;
29500;SDS011;16450;50.288;10.966;2023-12-07T02:27:40;41.40;;;22.93;;
29500;SDS011;16450;50.288;10.966;2023-12-07T02:30:49;42.37;;;22.70;;
29500;SDS011;16450;50.288;10.966;2023-12-07T02:33:51;42.43;;;23.00;;
29500;SDS011;16450;50.288;10.966;2023-12-07T02:36:53;43.83;;;23.13;;
29500;SDS011;16450;50.288;10.966;2023-12-07T02:39:59;40.73;;;21.93;;
29500;SDS011;16450;50.288;10.966;2023-12-07T02:43:01;41.77;;;22.73;;
29500;SDS011;16450;50.288;10.966;2023-12-07T02:46:05;44.77;;;23.53;;
29500;SDS011;16450;50.288;10.966;2023-12-07T02:49:07;39.70;;;21.27;;
29500;SDS011;16450;50.288;10.966;2023-12-07T02:52:09;42.20;;;20.83;;
29500;SDS011;16450;50.288;10.966;2023-12-07T02:55:11;44.37;;;23.40;;
29500;SDS011;16450;50.288;10.966;2023-12-07T02:58:13;40.53;;;21.27;;
29500;SDS011;16450;50.288;10.966;2023-12-07T03:01:15;43.63;;;23.23;;
29500;SDS011;16450;50.288;10.966;2023-12-07T03:04:17;43.10;;;22.40;;
29500;SDS011;16450;50.288;10.966;2023-12-07T03:07:19;48.97;;;24.33;;
29500;SDS011;16450;50.288;10.966;2023-12-07T03:10:21;41.60;;;22.00;;
29500;SDS011;16450;50.288;10.966;2023-12-07T03:13:23;41.27;;;22.70;;
29500;SDS011;16450;50.288;10.966;2023-12-07T03:16:25;41.73;;;22.77;;
29500;SDS011;16450;50.288;10.966;2023-12-07T03:19:26;42.40;;;23.23;;
29500;SDS011;16450;50.288;10.966;2023-12-07T03:22:28;42.53;;;23.07;;
29500;SDS011;16450;50.288;10.966;2023-12-07T03:25:31;40.57;;;21.97;;
29500;SDS011;16450;50.288;10.966;2023-12-07T03:28:33;42.53;;;21.93;;
29500;SDS011;16450;50.288;10.966;2023-12-07T03:31:35;44.80;;;22.53;;
29500;SDS011;16450;50.288;10.966;2023-12-07T03:34:37;45.33;;;24.20;;
29500;SDS011;16450;50.288;10.966;2023-12-07T03:37:39;46.17;;;23.60;;
29500;SDS011;16450;50.288;10.966;2023-12-07T03:40:40;42.53;;;22.10;;
29500;SDS011;16450;50.288;10.966;2023-12-07T03:43:43;45.67;;;24.10;;
29500;SDS011;16450;50.288;10.966;2023-12-07T03:46:46;44.77;;;24.40;;
29500;SDS011;16450;50.288;10.966;2023-12-07T03:49:48;44.17;;;23.53;;
29500;SDS011;16450;50.288;10.966;2023-12-07T03:52:49;44.93;;;23.30;;
29500;SDS011;16450;50.288;10.966;2023-12-07T03:55:51;44.07;;;23.03;;
29500;SDS011;16450;50.288;10.966;2023-12-07T03:58:54;42.10;;;23.63;;
29500;SDS011;16450;50.288;10.966;2023-12-07T04:01:56;41.70;;;23.43;;
29500;SDS011;16450;50.288;10.966;2023-12-07T04:04:57;44.40;;;23.87;;
29500;SDS011;16450;50.288;10.966;2023-12-07T04:08:03;43.47;;;23.13;;
29500;SDS011;16450;50.288;10.966;2023-12-07T04:11:06;41.70;;;22.27;;
29500;SDS011;16450;50.288;10.966;2023-12-07T04:14:08;41.27;;;23.13;;
29500;SDS011;16450;50.288;10.966;2023-12-07T04:17:10;42.67;;;23.27;;
29500;SDS011;16450;50.288;10.966;2023-12-07T04:20:12;42.43;;;22.83;;
29500;SDS011;16450;50.288;10.966;2023-12-07T04:23:16;44.53;;;22.63;;
29500;SDS011;16450;50.288;10.966;2023-12-07T04:26:18;41.23;;;22.20;;
29500;SDS011;16450;50.288;10.966;2023-12-07T04:29:20;43.67;;;22.80;;
29500;SDS011;16450;50.288;10.966;2023-12-07T04:32:22;41.40;;;22.03;;
29500;SDS011;16450;50.288;10.966;2023-12-07T04:35:24;42.00;;;23.10;;
29500;SDS011;16450;50.288;10.966;2023-12-07T04:38:27;42.30;;;23.33;;
29500;SDS011;16450;50.288;10.966;2023-12-07T04:41:28;42.73;;;22.93;;
29500;SDS011;16450;50.288;10.966;2023-12-07T04:44:30;41.47;;;22.03;;
29500;SDS011;16450;50.288;10.966;2023-12-07T04:47:32;44.20;;;22.80;;
29500;SDS011;16450;50.288;10.966;2023-12-07T04:50:34;44.17;;;24.20;;
29500;SDS011;16450;50.288;10.966;2023-12-07T04:53:36;44.40;;;23.07;;
29500;SDS011;16450;50.288;10.966;2023-12-07T04:56:39;43.87;;;23.80;;
29500;SDS011;16450;50.288;10.966;2023-12-07T04:59:44;40.60;;;22.17;;
29500;SDS011;16450;50.288;10.966;2023-12-07T05:02:48;45.53;;;23.80;;
29500;SDS011;16450;50.288;10.966;2023-12-07T05:05:50;43.50;;;22.67;;
29500;SDS011;16450;50.288;10.966;2023-12-07T05:08:52;41.90;;;22.63;;
29500;SDS011;16450;50.288;10.966;2023-12-07T05:11:54;40.30;;;22.23;;
29500;SDS011;16450;50.288;10.966;2023-12-07T05:14:56;40.57;;;21.57;;
29500;SDS011;16450;50.288;10.966;2023-12-07T05:17:57;44.70;;;23.53;;
29500;SDS011;16450;50.288;10.966;2023-12-07T05:20:59;40.33;;;19.90;;
29500;SDS011;16450;50.288;10.966;2023-12-07T05:24:01;42.70;;;21.77;;
29500;SDS011;16450;50.288;10.966;2023-12-07T05:27:03;40.33;;;23.20;;
29500;SDS011;16450;50.288;10.966;2023-12-07T05:30:06;40.37;;;22.93;;
29500;SDS011;16450;50.288;10.966;2023-12-07T05:33:08;44.20;;;23.27;;
29500;SDS011;16450;50.288;10.966;2023-12-07T05:36:10;41.50;;;23.53;;
29500;SDS011;16450;50.288;10.966;2023-12-07T05:39:13;40.40;;;22.80;;
29500;SDS011;16450;50.288;10.966;2023-12-07T05:42:15;44.57;;;22.23;;
29500;SDS011;16450;50.288;10.966;2023-12-07T05:45:17;44.77;;;23.77;;
29500;SDS011;16450;50.288;10.966;2023-12-07T05:48:18;40.33;;;22.03;;
29500;SDS011;16450;50.288;10.966;2023-12-07T05:51:20;45.03;;;23.17;;
29500;SDS011;16450;50.288;10.966;2023-12-07T05:54:24;40.83;;;22.53;;
29500;SDS011;16450;50.288;10.966;2023-12-07T05:57:25;43.87;;;24.13;;
29500;SDS011;16450;50.288;10.966;2023-12-07T06:00:27;45.40;;;23.23;;
29500;SDS011;16450;50.288;10.966;2023-12-07T06:03:29;42.30;;;23.67;;
29500;SDS011;16450;50.288;10.966;2023-12-07T06:06:31;42.90;;;22.97;;
29500;SDS011;16450;50.288;10.966;2023-12-07T06:09:33;43.53;;;22.73;;
29500;SDS011;16450;50.288;10.966;2023-12-07T06:12:35;47.60;;;24.27;;
29500;SDS011;16450;50.288;10.966;2023-12-07T06:15:37;55.10;;;28.77;;
29500;SDS011;16450;50.288;10.966;2023-12-07T06:18:39;55.40;;;29.27;;
29500;SDS011;16450;50.288;10.966;2023-12-07T06:21:41;51.70;;;28.87;;
29500;SDS011;16450;50.288;10.966;2023-12-07T06:24:43;65.40;;;33.43;;
29500;SDS011;16450;50.288;10.966;2023-12-07T06:27:46;56.77;;;30.17;;
29500;SDS011;16450;50.288;10.966;2023-12-07T06:30:48;55.73;;;30.27;;
29500;SDS011;16450;50.288;10.966;2023-12-07T06:33:50;52.90;;;27.83;;
29500;SDS011;16450;50.288;10.966;2023-12-07T06:36:52;46.00;;;24.93;;
29500;SDS011;16450;50.288;10.966;2023-12-07T06:39:54;45.93;;;25.10;;
29500;SDS011;16450;50.288;10.966;2023-12-07T06:42:56;45.77;;;24.73;;
29500;SDS011;16450;50.288;10.966;2023-12-07T06:45:58;39.90;;;22.10;;
29500;SDS011;16450;50.288;10.966;2023-12-07T06:49:00;41.53;;;22.53;;
29500;SDS011;16450;50.288;10.966;2023-12-07T06:52:02;41.17;;;22.10;;
29500;SDS011;16450;50.288;10.966;2023-12-07T06:55:05;40.67;;;23.03;;
29500;SDS011;16450;50.288;10.966;2023-12-07T06:58:08;37.07;;;21.30;;
29500;SDS011;16450;50.288;10.966;2023-12-07T07:01:11;43.97;;;23.60;;
29500;SDS011;16450;50.288;10.966;2023-12-07T07:04:14;44.03;;;23.40;;
29500;SDS011;16450;50.288;10.966;2023-12-07T07:07:17;39.83;;;23.90;;
29500;SDS011;16450;50.288;10.966;2023-12-07T07:10:19;39.27;;;21.80;;
29500;SDS011;16450;50.288;10.966;2023-12-07T07:13:21;42.00;;;23.00;;
29500;SDS011;16450;50.288;10.966;2023-12-07T07:16:23;41.47;;;23.80;;
29500;SDS011;16450;50.288;10.966;2023-12-07T07:19:25;44.13;;;23.20;;
29500;SDS011;16450;50.288;10.966;2023-12-07T07:22:27;42.27;;;22.67;;
29500;SDS011;16450;50.288;10.966;2023-12-07T07:25:29;39.87;;;22.20;;
29500;SDS011;16450;50.288;10.966;2023-12-07T07:28:32;41.17;;;23.50;;
29500;SDS011;16450;50.288;10.966;2023-12-07T07:31:34;44.10;;;23.90;;
29500;SDS011;16450;50.288;10.966;2023-12-07T07:34:37;43.07;;;23.77;;
29500;SDS011;16450;50.288;10.966;2023-12-07T07:37:41;44.30;;;23.30;;
29500;SDS011;16450;50.288;10.966;2023-12-07T07:40:43;44.27;;;22.73;;
29500;SDS011;16450;50.288;10.966;2023-12-07T07:43:46;41.20;;;24.10;;
29500;SDS011;16450;50.288;10.966;2023-12-07T07:46:48;43.27;;;24.30;;
29500;SDS011;16450;50.288;10.966;2023-12-07T07:49:50;52.60;;;25.47;;
29500;SDS011;16450;50.288;10.966;2023-12-07T07:52:52;53.53;;;28.93;;
29500;SDS011;16450;50.288;10.966;2023-12-07T07:55:55;47.87;;;27.10;;
29500;SDS011;16450;50.288;10.966;2023-12-07T07:58:57;46.10;;;25.67;;
29500;SDS011;16450;50.288;10.966;2023-12-07T08:02:01;47.33;;;25.57;;
29500;SDS011;16450;50.288;10.966;2023-12-07T08:05:04;47.57;;;25.10;;
29500;SDS011;16450;50.288;10.966;2023-12-07T08:08:06;48.77;;;25.30;;
29500;SDS011;16450;50.288;10.966;2023-12-07T08:11:09;45.50;;;24.57;;
29500;SDS011;16450;50.288;10.966;2023-12-07T08:14:11;45.93;;;24.23;;
29500;SDS011;16450;50.288;10.966;2023-12-07T08:17:14;44.23;;;24.53;;
29500;SDS011;16450;50.288;10.966;2023-12-07T08:20:16;44.70;;;24.90;;
29500;SDS011;16450;50.288;10.966;2023-12-07T08:23:18;43.20;;;24.90;;
29500;SDS011;16450;50.288;10.966;2023-12-07T08:26:19;45.30;;;25.40;;
29500;SDS011;16450;50.288;10.966;2023-12-07T08:29:21;41.27;;;23.60;;
29500;SDS011;16450;50.288;10.966;2023-12-07T08:32:23;43.13;;;24.67;;
29500;SDS011;16450;50.288;10.966;2023-12-07T08:35:27;41.50;;;23.37;;
29500;SDS011;16450;50.288;10.966;2023-12-07T08:38:29;41.77;;;24.00;;
29500;SDS011;16450;50.288;10.966;2023-12-07T08:41:30;34.77;;;20.43;;
29500;SDS011;16450;50.288;10.966;2023-12-07T08:44:32;32.70;;;18.70;;
29500;SDS011;16450;50.288;10.966;2023-12-07T08:47:34;31.10;;;18.67;;
29500;SDS011;16450;50.288;10.966;2023-12-07T08:50:36;35.90;;;19.27;;
29500;SDS011;16450;50.288;10.966;2023-12-07T08:53:38;35.87;;;18.03;;
29500;SDS011;16450;50.288;10.966;2023-12-07T08:56:43;30.13;;;17.63;;
29500;SDS011;16450;50.288;10.966;2023-12-07T08:59:46;33.10;;;19.03;;
29500;SDS011;16450;50.288;10.966;2023-12-07T09:02:47;30.90;;;18.90;;
29500;SDS011;16450;50.288;10.966;2023-12-07T09:05:49;32.27;;;18.17;;
29500;SDS011;16450;50.288;10.966;2023-12-07T09:08:51;26.30;;;16.67;;
29500;SDS011;16450;50.288;10.966;2023-12-07T09:11:54;30.47;;;18.43;;
29500;SDS011;16450;50.288;10.966;2023-12-07T09:14:55;31.77;;;18.70;;
29500;SDS011;16450;50.288;10.966;2023-12-07T09:17:57;31.20;;;17.50;;
29500;SDS011;16450;50.288;10.966;2023-12-07T09:20:59;31.00;;;19.00;;
29500;SDS011;16450;50.288;10.966;2023-12-07T09:24:02;31.47;;;18.77;;
29500;SDS011;16450;50.288;10.966;2023-12-07T09:27:04;31.83;;;18.97;;
29500;SDS011;16450;50.288;10.966;2023-12-07T09:30:06;30.70;;;17.57;;
29500;SDS011;16450;50.288;10.966;2023-12-07T09:33:13;31.17;;;17.60;;
29500;SDS011;16450;50.288;10.966;2023-12-07T09:36:18;31.53;;;18.47;;
29500;SDS011;16450;50.288;10.966;2023-12-07T09:39:20;31.63;;;17.10;;
29500;SDS011;16450;50.288;10.966;2023-12-07T09:42:22;30.37;;;16.00;;
29500;SDS011;16450;50.288;10.966;2023-12-07T09:45:31;30.33;;;17.00;;
29500;SDS011;16450;50.288;10.966;2023-12-07T09:48:36;30.93;;;17.27;;
29500;SDS011;16450;50.288;10.966;2023-12-07T09:51:41;30.40;;;16.60;;
29500;SDS011;16450;50.288;10.966;2023-12-07T09:54:44;27.73;;;16.47;;
29500;SDS011;16450;50.288;10.966;2023-12-07T09:57:47;29.20;;;17.23;;
29500;SDS011;16450;50.288;10.966;2023-12-07T10:00:49;27.53;;;16.47;;
29500;SDS011;16450;50.288;10.966;2023-12-07T10:04:07;26.43;;;15.77;;
29500;SDS011;16450;50.288;10.966;2023-12-07T10:07:35;31.43;;;17.17;;
29500;SDS011;16450;50.288;10.966;2023-12-07T10:10:39;26.77;;;17.30;;
29500;SDS011;16450;50.288;10.966;2023-12-07T10:13:41;29.37;;;16.67;;
29500;SDS011;16450;50.288;10.966;2023-12-07T10:16:53;28.57;;;17.77;;
29500;SDS011;16450;50.288;10.966;2023-12-07T10:20:09;31.33;;;18.47;;
29500;SDS011;16450;50.288;10.966;2023-12-07T10:23:13;32.37;;;18.30;;
29500;SDS011;16450;50.288;10.966;2023-12-07T10:26:18;33.43;;;19.43;;
29500;SDS011;16450;50.288;10.966;2023-12-07T10:29:22;32.03;;;17.63;;
29500;SDS011;16450;50.288;10.966;2023-12-07T10:32:36;28.33;;;16.90;;
29500;SDS011;16450;50.288;10.966;2023-12-07T10:35:39;29.50;;;17.33;;
29500;SDS011;16450;50.288;10.966;2023-12-07T10:38:42;26.00;;;16.17;;
29500;SDS011;16450;50.288;10.966;2023-12-07T10:41:46;26.73;;;15.80;;
29500;SDS011;16450;50.288;10.966;2023-12-07T10:44:50;27.93;;;17.37;;
29500;SDS011;16450;50.288;10.966;2023-12-07T10:48:03;33.30;;;19.63;;
29500;SDS011;16450;50.288;10.966;2023-12-07T10:51:09;31.07;;;18.90;;
29500;SDS011;16450;50.288;10.966;2023-12-07T10:54:22;32.33;;;19.77;;
29500;SDS011;16450;50.288;10.966;2023-12-07T10:57:27;32.70;;;19.63;;
29500;SDS011;16450;50.288;10.966;2023-12-07T11:00:29;33.00;;;18.83;;
29500;SDS011;16450;50.288;10.966;2023-12-07T11:03:44;31.03;;;18.97;;
29500;SDS011;16450;50.288;10.966;2023-12-07T11:06:50;32.20;;;19.57;;
29500;SDS011;16450;50.288;10.966;2023-12-07T11:10:00;35.50;;;19.63;;
29500;SDS011;16450;50.288;10.966;2023-12-07T11:13:20;38.40;;;21.03;;
29500;SDS011;16450;50.288;10.966;2023-12-07T11:16:28;29.03;;;16.77;;
29500;SDS011;16450;50.288;10.966;2023-12-07T11:22:43;32.30;;;18.90;;
29500;SDS011;16450;50.288;10.966;2023-12-07T11:25:45;28.70;;;16.97;;
29500;SDS011;16450;50.288;10.966;2023-12-07T11:28:49;27.67;;;17.37;;
29500;SDS011;16450;50.288;10.966;2023-12-07T11:31:52;30.27;;;16.83;;
29500;SDS011;16450;50.288;10.966;2023-12-07T11:35:03;27.67;;;17.13;;
29500;SDS011;16450;50.288;10.966;2023-12-07T11:38:09;26.87;;;15.27;;
29500;SDS011;16450;50.288;10.966;2023-12-07T11:41:13;28.53;;;15.73;;
29500;SDS011;16450;50.288;10.966;2023-12-07T11:44:17;23.17;;;14.23;;
29500;SDS011;16450;50.288;10.966;2023-12-07T11:47:19;25.27;;;15.37;;
29500;SDS011;16450;50.288;10.966;2023-12-07T11:50:22;28.23;;;17.73;;
29500;SDS011;16450;50.288;10.966;2023-12-07T11:53:25;26.07;;;15.93;;
29500;SDS011;16450;50.288;10.966;2023-12-07T11:56:29;29.13;;;16.50;;
29500;SDS011;16450;50.288;10.966;2023-12-07T11:59:32;27.93;;;16.80;;
29500;SDS011;16450;50.288;10.966;2023-12-07T12:02:34;32.13;;;17.57;;
29500;SDS011;16450;50.288;10.966;2023-12-07T12:05:40;27.10;;;16.27;;
29500;SDS011;16450;50.288;10.966;2023-12-07T12:08:44;26.23;;;16.30;;
29500;SDS011;16450;50.288;10.966;2023-12-07T12:11:46;29.33;;;18.30;;
29500;SDS011;16450;50.288;10.966;2023-12-07T12:14:49;29.40;;;18.00;;
29500;SDS011;16450;50.288;10.966;2023-12-07T12:17:51;28.57;;;17.03;;
29500;SDS011;16450;50.288;10.966;2023-12-07T12:20:53;28.97;;;16.70;;
29500;SDS011;16450;50.288;10.966;2023-12-07T12:23:57;27.37;;;16.33;;
29500;SDS011;16450;50.288;10.966;2023-12-07T12:26:59;27.27;;;16.80;;
29500;SDS011;16450;50.288;10.966;2023-12-07T12:30:01;28.30;;;16.73;;
29500;SDS011;16450;50.288;10.966;2023-12-07T12:33:04;25.57;;;16.57;;
29500;SDS011;16450;50.288;10.966;2023-12-07T12:36:06;24.87;;;14.13;;
29500;SDS011;16450;50.288;10.966;2023-12-07T12:39:11;22.13;;;14.53;;
29500;SDS011;16450;50.288;10.966;2023-12-07T12:42:27;24.03;;;14.40;;
29500;SDS011;16450;50.288;10.966;2023-12-07T12:45:29;23.77;;;14.33;;
29500;SDS011;16450;50.288;10.966;2023-12-07T12:48:34;28.07;;;16.03;;
29500;SDS011;16450;50.288;10.966;2023-12-07T12:51:36;24.90;;;15.07;;
29500;SDS011;16450;50.288;10.966;2023-12-07T12:54:42;26.13;;;14.83;;
29500;SDS011;16450;50.288;10.966;2023-12-07T12:57:45;23.03;;;15.00;;
29500;SDS011;16450;50.288;10.966;2023-12-07T13:00:47;26.83;;;15.87;;
29500;SDS011;16450;50.288;10.966;2023-12-07T13:03:49;26.97;;;14.10;;
29500;SDS011;16450;50.288;10.966;2023-12-07T13:06:51;25.00;;;15.10;;
29500;SDS011;16450;50.288;10.966;2023-12-07T13:09:53;23.63;;;14.33;;
29500;SDS011;16450;50.288;10.966;2023-12-07T13:12:55;27.33;;;15.37;;
29500;SDS011;16450;50.288;10.966;2023-12-07T13:15:58;25.67;;;16.07;;
29500;SDS011;16450;50.288;10.966;2023-12-07T13:18:59;24.13;;;15.50;;
29500;SDS011;16450;50.288;10.966;2023-12-07T13:22:02;26.73;;;15.67;;
29500;SDS011;16450;50.288;10.966;2023-12-07T13:25:08;23.17;;;14.07;;
29500;SDS011;16450;50.288;10.966;2023-12-07T13:28:10;23.17;;;14.03;;
29500;SDS011;16450;50.288;10.966;2023-12-07T13:31:12;24.83;;;14.67;;
29500;SDS011;16450;50.288;10.966;2023-12-07T13:34:14;24.50;;;14.77;;
29500;SDS011;16450;50.288;10.966;2023-12-07T13:37:24;29.27;;;15.60;;
29500;SDS011;16450;50.288;10.966;2023-12-07T13:40:26;28.63;;;15.30;;
29500;SDS011;16450;50.288;10.966;2023-12-07T13:43:28;25.27;;;15.47;;
29500;SDS011;16450;50.288;10.966;2023-12-07T13:46:33;24.87;;;14.80;;
29500;SDS011;16450;50.288;10.966;2023-12-07T13:49:34;25.60;;;13.77;;
29500;SDS011;16450;50.288;10.966;2023-12-07T13:52:38;21.17;;;13.47;;
29500;SDS011;16450;50.288;10.966;2023-12-07T13:55:40;19.57;;;12.10;;
29500;SDS011;16450;50.288;10.966;2023-12-07T13:58:42;21.40;;;12.60;;
29500;SDS011;16450;50.288;10.966;2023-12-07T14:01:44;20.63;;;12.03;;
29500;SDS011;16450;50.288;10.966;2023-12-07T14:04:46;22.27;;;12.00;;
29500;SDS011;16450;50.288;10.966;2023-12-07T14:07:52;20.33;;;12.20;;
29500;SDS011;16450;50.288;10.966;2023-12-07T14:10:54;20.50;;;12.30;;
29500;SDS011;16450;50.288;10.966;2023-12-07T14:13:56;21.87;;;12.57;;
29500;SDS011;16450;50.288;10.966;2023-12-07T14:16:59;20.23;;;12.70;;
29500;SDS011;16450;50.288;10.966;2023-12-07T14:20:11;20.43;;;12.97;;
29500;SDS011;16450;50.288;10.966;2023-12-07T14:23:34;24.83;;;14.17;;
29500;SDS011;16450;50.288;10.966;2023-12-07T14:26:38;21.90;;;13.27;;
29500;SDS011;16450;50.288;10.966;2023-12-07T14:29:47;25.93;;;14.47;;
29500;SDS011;16450;50.288;10.966;2023-12-07T14:32:49;24.47;;;14.27;;
29500;SDS011;16450;50.288;10.966;2023-12-07T14:35:54;24.17;;;13.97;;
29500;SDS011;16450;50.288;10.966;2023-12-07T14:38:57;23.83;;;13.97;;
29500;SDS011;16450;50.288;10.966;2023-12-07T14:41:59;24.03;;;14.20;;
29500;SDS011;16450;50.288;10.966;2023-12-07T14:45:03;29.63;;;16.93;;
29500;SDS011;16450;50.288;10.966;2023-12-07T14:48:06;27.63;;;15.23;;
29500;SDS011;16450;50.288;10.966;2023-12-07T14:51:08;25.77;;;14.97;;
29500;SDS011;16450;50.288;10.966;2023-12-07T14:54:11;25.83;;;14.97;;
29500;SDS011;16450;50.288;10.966;2023-12-07T14:57:18;26.17;;;15.87;;
29500;SDS011;16450;50.288;10.966;2023-12-07T15:00:20;29.70;;;16.10;;
29500;SDS011;16450;50.288;10.966;2023-12-07T15:03:22;26.57;;;15.23;;
29500;SDS011;16450;50.288;10.966;2023-12-07T15:06:25;27.67;;;16.20;;
29500;SDS011;16450;50.288;10.966;2023-12-07T15:09:29;36.93;;;19.63;;
29500;SDS011;16450;50.288;10.966;2023-12-07T15:12:31;29.73;;;16.03;;
29500;SDS011;16450;50.288;10.966;2023-12-07T15:15:35;29.23;;;16.23;;
29500;SDS011;16450;50.288;10.966;2023-12-07T15:18:37;28.00;;;15.73;;
29500;SDS011;16450;50.288;10.966;2023-12-07T15:21:43;59.07;;;29.77;;
29500;SDS011;16450;50.288;10.966;2023-12-07T15:24:45;57.63;;;28.77;;
29500;SDS011;16450;50.288;10.966;2023-12-07T15:27:48;54.97;;;29.77;;
29500;SDS011;16450;50.288;10.966;2023-12-07T15:30:51;48.90;;;27.47;;
29500;SDS011;16450;50.288;10.966;2023-12-07T15:33:53;39.43;;;23.93;;
29500;SDS011;16450;50.288;10.966;2023-12-07T15:36:55;42.03;;;23.37;;
29500;SDS011;16450;50.288;10.966;2023-12-07T15:39:58;36.63;;;21.43;;
29500;SDS011;16450;50.288;10.966;2023-12-07T15:43:00;36.20;;;21.03;;
29500;SDS011;16450;50.288;10.966;2023-12-07T15:46:02;38.23;;;21.00;;
29500;SDS011;16450;50.288;10.966;2023-12-07T15:49:04;31.27;;;17.70;;
29500;SDS011;16450;50.288;10.966;2023-12-07T15:52:07;28.57;;;16.10;;
29500;SDS011;16450;50.288;10.966;2023-12-07T15:55:09;31.90;;;17.07;;
29500;SDS011;16450;50.288;10.966;2023-12-07T15:58:11;30.07;;;17.30;;
29500;SDS011;16450;50.288;10.966;2023-12-07T16:01:15;30.13;;;16.27;;
29500;SDS011;16450;50.288;10.966;2023-12-07T16:04:17;32.73;;;17.03;;
29500;SDS011;16450;50.288;10.966;2023-12-07T16:07:32;34.57;;;17.73;;
29500;SDS011;16450;50.288;10.966;2023-12-07T16:10:34;34.47;;;18.53;;
29500;SDS011;16450;50.288;10.966;2023-12-07T16:13:36;31.50;;;17.93;;
29500;SDS011;16450;50.288;10.966;2023-12-07T16:16:38;31.87;;;17.80;;
29500;SDS011;16450;50.288;10.966;2023-12-07T16:19:40;33.03;;;18.33;;
29500;SDS011;16450;50.288;10.966;2023-12-07T16:22:43;31.77;;;17.53;;
29500;SDS011;16450;50.288;10.966;2023-12-07T16:25:45;36.60;;;19.93;;
29500;SDS011;16450;50.288;10.966;2023-12-07T16:28:47;37.40;;;19.77;;
29500;SDS011;16450;50.288;10.966;2023-12-07T16:31:49;35.20;;;20.40;;
29500;SDS011;16450;50.288;10.966;2023-12-07T16:34:51;34.53;;;19.60;;
29500;SDS011;16450;50.288;10.966;2023-12-07T16:37:53;34.57;;;20.40;;
29500;SDS011;16450;50.288;10.966;2023-12-07T16:40:55;36.00;;;21.03;;
29500;SDS011;16450;50.288;10.966;2023-12-07T16:43:57;36.17;;;21.13;;
29500;SDS011;16450;50.288;10.966;2023-12-07T16:47:02;42.33;;;24.23;;
29500;SDS011;16450;50.288;10.966;2023-12-07T16:50:05;40.57;;;22.77;;
29500;SDS011;16450;50.288;10.966;2023-12-07T16:53:08;43.97;;;24.83;;
29500;SDS011;16450;50.288;10.966;2023-12-07T16:56:10;46.80;;;27.77;;
29500;SDS011;16450;50.288;10.966;2023-12-07T16:59:12;34.27;;;19.57;;
29500;SDS011;16450;50.288;10.966;2023-12-07T17:02:13;39.77;;;20.93;;
29500;SDS011;16450;50.288;10.966;2023-12-07T17:05:15;34.40;;;17.97;;
29500;SDS011;16450;50.288;10.966;2023-12-07T17:08:18;35.10;;;19.10;;
29500;SDS011;16450;50.288;10.966;2023-12-07T17:11:22;38.83;;;20.80;;
29500;SDS011;16450;50.288;10.966;2023-12-07T17:14:24;32.90;;;18.13;;
29500;SDS011;16450;50.288;10.966;2023-12-07T17:17:26;35.17;;;17.50;;
29500;SDS011;16450;50.288;10.966;2023-12-07T17:20:28;32.30;;;17.47;;
29500;SDS011;16450;50.288;10.966;2023-12-07T17:23:30;36.43;;;19.57;;
29500;SDS011;16450;50.288;10.966;2023-12-07T17:26:34;28.70;;;16.43;;
29500;SDS011;16450;50.288;10.966;2023-12-07T17:29:49;29.73;;;16.57;;
29500;SDS011;16450;50.288;10.966;2023-12-07T17:32:51;32.47;;;18.47;;
29500;SDS011;16450;50.288;10.966;2023-12-07T17:35:53;31.47;;;17.37;;
29500;SDS011;16450;50.288;10.966;2023-12-07T17:38:55;29.70;;;16.93;;
29500;SDS011;16450;50.288;10.966;2023-12-07T17:41:57;32.30;;;17.07;;
29500;SDS011;16450;50.288;10.966;2023-12-07T17:44:59;28.73;;;15.30;;